sensor_id;sensor_type;location;lat;lon;timestamp;P1;durP1;ratioP1;P2;durP2;ratioP2
27505;SDS011;14939;43.596;1.320;2023-06-14T00:01:24;9.45;;;7.68;;
27505;SDS011;14939;43.596;1.320;2023-06-14T00:03:50;11.98;;;8.05;;
27505;SDS011;14939;43.596;1.320;2023-06-14T00:06:15;12.63;;;8.45;;
27505;SDS011;14939;43.596;1.320;2023-06-14T00:08:42;11.07;;;8.10;;
27505;SDS011;14939;43.596;1.320;2023-06-14T00:11:08;14.20;;;8.45;;
27505;SDS011;14939;43.596;1.320;2023-06-14T00:13:33;13.30;;;8.55;;
27505;SDS011;14939;43.596;1.320;2023-06-14T00:15:59;13.88;;;8.90;;
27505;SDS011;14939;43.596;1.320;2023-06-14T00:18:25;14.18;;;9.23;;
27505;SDS011;14939;43.596;1.320;2023-06-14T00:20:54;19.98;;;10.02;;
27505;SDS011;14939;43.596;1.320;2023-06-14T00:23:20;17.13;;;10.43;;
27505;SDS011;14939;43.596;1.320;2023-06-14T00:25:46;16.38;;;10.27;;
27505;SDS011;14939;43.596;1.320;2023-06-14T00:28:12;19.70;;;10.27;;
27505;SDS011;14939;43.596;1.320;2023-06-14T00:30:38;17.67;;;11.95;;
27505;SDS011;14939;43.596;1.320;2023-06-14T00:33:04;22.77;;;14.40;;
27505;SDS011;14939;43.596;1.320;2023-06-14T00:35:30;25.08;;;15.20;;
27505;SDS011;14939;43.596;1.320;2023-06-14T00:37:55;34.05;;;18.85;;
27505;SDS011;14939;43.596;1.320;2023-06-14T00:40:21;31.13;;;18.73;;
27505;SDS011;14939;43.596;1.320;2023-06-14T00:42:47;29.58;;;19.25;;
27505;SDS011;14939;43.596;1.320;2023-06-14T00:45:13;29.38;;;19.30;;
27505;SDS011;14939;43.596;1.320;2023-06-14T00:47:39;32.08;;;20.52;;
27505;SDS011;14939;43.596;1.320;2023-06-14T00:50:07;32.63;;;20.75;;
27505;SDS011;14939;43.596;1.320;2023-06-14T00:52:34;34.40;;;20.85;;
27505;SDS011;14939;43.596;1.320;2023-06-14T00:54:59;33.63;;;20.83;;
27505;SDS011;14939;43.596;1.320;2023-06-14T00:57:26;32.33;;;21.52;;
27505;SDS011;14939;43.596;1.320;2023-06-14T00:59:52;38.13;;;22.02;;
27505;SDS011;14939;43.596;1.320;2023-06-14T01:02:18;41.53;;;22.83;;
27505;SDS011;14939;43.596;1.320;2023-06-14T01:04:45;39.95;;;24.55;;
27505;SDS011;14939;43.596;1.320;2023-06-14T01:10:06;42.65;;;24.33;;
27505;SDS011;14939;43.596;1.320;2023-06-14T01:15:12;40.47;;;23.77;;
27505;SDS011;14939;43.596;1.320;2023-06-14T01:17:40;43.40;;;24.20;;
27505;SDS011;14939;43.596;1.320;2023-06-14T01:20:09;40.97;;;23.60;;
27505;SDS011;14939;43.596;1.320;2023-06-14T01:22:57;38.63;;;23.05;;
27505;SDS011;14939;43.596;1.320;2023-06-14T01:25:24;42.45;;;23.98;;
27505;SDS011;14939;43.596;1.320;2023-06-14T01:27:51;42.22;;;24.02;;
27505;SDS011;14939;43.596;1.320;2023-06-14T01:30:20;40.75;;;23.70;;
27505;SDS011;14939;43.596;1.320;2023-06-14T01:32:48;44.40;;;25.27;;
27505;SDS011;14939;43.596;1.320;2023-06-14T01:35:15;37.65;;;23.35;;
27505;SDS011;14939;43.596;1.320;2023-06-14T01:37:42;40.60;;;23.30;;
27505;SDS011;14939;43.596;1.320;2023-06-14T01:40:09;39.17;;;23.42;;
27505;SDS011;14939;43.596;1.320;2023-06-14T01:42:37;32.33;;;21.30;;
27505;SDS011;14939;43.596;1.320;2023-06-14T01:45:05;34.88;;;22.13;;
27505;SDS011;14939;43.596;1.320;2023-06-14T01:47:31;33.10;;;21.27;;
27505;SDS011;14939;43.596;1.320;2023-06-14T01:49:58;38.78;;;21.88;;
27505;SDS011;14939;43.596;1.320;2023-06-14T01:52:24;33.80;;;20.55;;
27505;SDS011;14939;43.596;1.320;2023-06-14T01:54:50;32.08;;;21.30;;
27505;SDS011;14939;43.596;1.320;2023-06-14T01:57:16;35.13;;;21.95;;
27505;SDS011;14939;43.596;1.320;2023-06-14T01:59:42;33.22;;;20.27;;
27505;SDS011;14939;43.596;1.320;2023-06-14T02:02:07;34.85;;;21.30;;
27505;SDS011;14939;43.596;1.320;2023-06-14T02:04:33;34.70;;;21.38;;
27505;SDS011;14939;43.596;1.320;2023-06-14T02:06:59;31.35;;;20.73;;
27505;SDS011;14939;43.596;1.320;2023-06-14T02:09:25;31.00;;;20.10;;
27505;SDS011;14939;43.596;1.320;2023-06-14T02:11:51;34.83;;;21.00;;
27505;SDS011;14939;43.596;1.320;2023-06-14T02:14:16;35.50;;;20.90;;
27505;SDS011;14939;43.596;1.320;2023-06-14T02:16:43;29.48;;;18.92;;
27505;SDS011;14939;43.596;1.320;2023-06-14T02:19:16;32.10;;;19.02;;
27505;SDS011;14939;43.596;1.320;2023-06-14T02:21:42;33.38;;;19.58;;
27505;SDS011;14939;43.596;1.320;2023-06-14T02:24:08;25.17;;;17.63;;
27505;SDS011;14939;43.596;1.320;2023-06-14T02:26:34;28.17;;;17.98;;
27505;SDS011;14939;43.596;1.320;2023-06-14T02:28:59;25.20;;;16.35;;
27505;SDS011;14939;43.596;1.320;2023-06-14T02:31:26;25.98;;;17.23;;
27505;SDS011;14939;43.596;1.320;2023-06-14T02:33:52;28.30;;;16.67;;
27505;SDS011;14939;43.596;1.320;2023-06-14T02:36:17;26.88;;;16.70;;
27505;SDS011;14939;43.596;1.320;2023-06-14T02:38:43;30.27;;;16.17;;
27505;SDS011;14939;43.596;1.320;2023-06-14T02:41:10;27.55;;;17.25;;
27505;SDS011;14939;43.596;1.320;2023-06-14T02:43:35;26.98;;;16.40;;
27505;SDS011;14939;43.596;1.320;2023-06-14T02:46:01;27.17;;;16.98;;
27505;SDS011;14939;43.596;1.320;2023-06-14T02:48:27;24.63;;;16.50;;
27505;SDS011;14939;43.596;1.320;2023-06-14T02:50:53;24.35;;;16.40;;
27505;SDS011;14939;43.596;1.320;2023-06-14T02:53:19;25.50;;;16.80;;
27505;SDS011;14939;43.596;1.320;2023-06-14T02:55:45;27.98;;;18.17;;
27505;SDS011;14939;43.596;1.320;2023-06-14T02:58:11;29.42;;;18.45;;
27505;SDS011;14939;43.596;1.320;2023-06-14T03:00:38;25.77;;;18.27;;
27505;SDS011;14939;43.596;1.320;2023-06-14T03:03:06;25.58;;;18.50;;
27505;SDS011;14939;43.596;1.320;2023-06-14T03:05:38;27.08;;;16.92;;
27505;SDS011;14939;43.596;1.320;2023-06-14T03:08:12;21.98;;;16.42;;
27505;SDS011;14939;43.596;1.320;2023-06-14T03:10:48;20.00;;;15.15;;
27505;SDS011;14939;43.596;1.320;2023-06-14T03:13:17;23.85;;;14.85;;
27505;SDS011;14939;43.596;1.320;2023-06-14T03:15:46;22.05;;;15.20;;
27505;SDS011;14939;43.596;1.320;2023-06-14T03:18:12;21.65;;;15.60;;
27505;SDS011;14939;43.596;1.320;2023-06-14T03:20:40;21.92;;;14.85;;
27505;SDS011;14939;43.596;1.320;2023-06-14T03:23:08;20.48;;;14.20;;
27505;SDS011;14939;43.596;1.320;2023-06-14T03:25:42;19.90;;;13.90;;
27505;SDS011;14939;43.596;1.320;2023-06-14T03:28:11;20.05;;;14.45;;
27505;SDS011;14939;43.596;1.320;2023-06-14T03:30:37;20.10;;;13.48;;
27505;SDS011;14939;43.596;1.320;2023-06-14T03:33:02;17.27;;;14.07;;
27505;SDS011;14939;43.596;1.320;2023-06-14T03:35:29;18.60;;;14.00;;
27505;SDS011;14939;43.596;1.320;2023-06-14T03:37:55;20.40;;;14.43;;
27505;SDS011;14939;43.596;1.320;2023-06-14T03:40:21;18.65;;;14.10;;
27505;SDS011;14939;43.596;1.320;2023-06-14T03:42:47;17.98;;;13.60;;
27505;SDS011;14939;43.596;1.320;2023-06-14T03:45:12;19.10;;;14.02;;
27505;SDS011;14939;43.596;1.320;2023-06-14T03:47:38;18.63;;;13.55;;
27505;SDS011;14939;43.596;1.320;2023-06-14T03:50:04;17.65;;;13.90;;
27505;SDS011;14939;43.596;1.320;2023-06-14T03:52:30;21.25;;;14.52;;
27505;SDS011;14939;43.596;1.320;2023-06-14T03:54:57;18.58;;;13.10;;
27505;SDS011;14939;43.596;1.320;2023-06-14T03:57:25;18.80;;;13.20;;
27505;SDS011;14939;43.596;1.320;2023-06-14T03:59:51;20.98;;;14.68;;
27505;SDS011;14939;43.596;1.320;2023-06-14T04:02:17;18.75;;;14.48;;
27505;SDS011;14939;43.596;1.320;2023-06-14T04:04:43;21.80;;;14.55;;
27505;SDS011;14939;43.596;1.320;2023-06-14T04:07:13;24.23;;;16.17;;
27505;SDS011;14939;43.596;1.320;2023-06-14T04:09:39;22.77;;;16.42;;
27505;SDS011;14939;43.596;1.320;2023-06-14T04:12:06;26.08;;;18.20;;
27505;SDS011;14939;43.596;1.320;2023-06-14T04:14:33;22.30;;;17.40;;
27505;SDS011;14939;43.596;1.320;2023-06-14T04:17:00;23.35;;;17.13;;
27505;SDS011;14939;43.596;1.320;2023-06-14T04:19:25;24.27;;;17.60;;
27505;SDS011;14939;43.596;1.320;2023-06-14T04:21:51;25.70;;;17.42;;
27505;SDS011;14939;43.596;1.320;2023-06-14T04:24:17;24.33;;;17.50;;
27505;SDS011;14939;43.596;1.320;2023-06-14T04:26:43;24.63;;;17.38;;
27505;SDS011;14939;43.596;1.320;2023-06-14T04:29:10;29.88;;;18.58;;
27505;SDS011;14939;43.596;1.320;2023-06-14T04:31:39;30.05;;;19.13;;
27505;SDS011;14939;43.596;1.320;2023-06-14T04:34:05;30.35;;;19.38;;
27505;SDS011;14939;43.596;1.320;2023-06-14T04:36:32;32.70;;;18.38;;
27505;SDS011;14939;43.596;1.320;2023-06-14T04:39:00;27.00;;;18.67;;
27505;SDS011;14939;43.596;1.320;2023-06-14T04:41:28;25.95;;;18.75;;
27505;SDS011;14939;43.596;1.320;2023-06-14T04:43:57;28.73;;;19.50;;
27505;SDS011;14939;43.596;1.320;2023-06-14T04:46:26;31.45;;;19.27;;
27505;SDS011;14939;43.596;1.320;2023-06-14T04:48:57;29.50;;;18.73;;
27505;SDS011;14939;43.596;1.320;2023-06-14T04:51:27;26.85;;;18.73;;
27505;SDS011;14939;43.596;1.320;2023-06-14T04:53:57;32.90;;;20.05;;
27505;SDS011;14939;43.596;1.320;2023-06-14T04:56:26;36.67;;;21.40;;
27505;SDS011;14939;43.596;1.320;2023-06-14T04:58:52;31.88;;;20.17;;
27505;SDS011;14939;43.596;1.320;2023-06-14T05:01:19;30.83;;;20.80;;
27505;SDS011;14939;43.596;1.320;2023-06-14T05:03:46;29.83;;;20.50;;
27505;SDS011;14939;43.596;1.320;2023-06-14T05:06:14;30.92;;;20.55;;
27505;SDS011;14939;43.596;1.320;2023-06-14T05:08:40;33.88;;;21.08;;
27505;SDS011;14939;43.596;1.320;2023-06-14T05:11:06;38.53;;;22.30;;
27505;SDS011;14939;43.596;1.320;2023-06-14T05:13:32;33.28;;;20.98;;
27505;SDS011;14939;43.596;1.320;2023-06-14T05:15:59;31.83;;;21.42;;
27505;SDS011;14939;43.596;1.320;2023-06-14T05:18:25;36.83;;;21.25;;
27505;SDS011;14939;43.596;1.320;2023-06-14T05:20:51;32.30;;;21.42;;
27505;SDS011;14939;43.596;1.320;2023-06-14T05:23:17;30.02;;;21.35;;
27505;SDS011;14939;43.596;1.320;2023-06-14T05:25:43;31.40;;;20.60;;
27505;SDS011;14939;43.596;1.320;2023-06-14T05:28:10;31.88;;;19.88;;
27505;SDS011;14939;43.596;1.320;2023-06-14T05:30:37;28.65;;;21.60;;
27505;SDS011;14939;43.596;1.320;2023-06-14T05:33:04;31.85;;;20.23;;
27505;SDS011;14939;43.596;1.320;2023-06-14T05:35:30;25.73;;;20.30;;
27505;SDS011;14939;43.596;1.320;2023-06-14T05:37:56;30.88;;;21.25;;
27505;SDS011;14939;43.596;1.320;2023-06-14T05:40:21;34.92;;;20.48;;
27505;SDS011;14939;43.596;1.320;2023-06-14T05:42:47;32.95;;;20.52;;
27505;SDS011;14939;43.596;1.320;2023-06-14T05:45:13;28.73;;;20.55;;
27505;SDS011;14939;43.596;1.320;2023-06-14T05:47:40;30.63;;;21.20;;
27505;SDS011;14939;43.596;1.320;2023-06-14T05:50:06;30.25;;;20.73;;
27505;SDS011;14939;43.596;1.320;2023-06-14T05:52:33;28.98;;;20.33;;
27505;SDS011;14939;43.596;1.320;2023-06-14T05:54:59;30.05;;;21.10;;
27505;SDS011;14939;43.596;1.320;2023-06-14T05:57:25;28.92;;;20.05;;
27505;SDS011;14939;43.596;1.320;2023-06-14T05:59:50;25.67;;;19.60;;
27505;SDS011;14939;43.596;1.320;2023-06-14T06:02:16;25.92;;;19.70;;
27505;SDS011;14939;43.596;1.320;2023-06-14T06:04:42;28.52;;;19.92;;
27505;SDS011;14939;43.596;1.320;2023-06-14T06:07:07;31.85;;;19.90;;
27505;SDS011;14939;43.596;1.320;2023-06-14T06:09:33;28.95;;;19.60;;
27505;SDS011;14939;43.596;1.320;2023-06-14T06:11:59;33.38;;;19.60;;
27505;SDS011;14939;43.596;1.320;2023-06-14T06:14:24;29.88;;;20.80;;
27505;SDS011;14939;43.596;1.320;2023-06-14T06:16:50;32.45;;;20.80;;
27505;SDS011;14939;43.596;1.320;2023-06-14T06:19:17;30.48;;;20.65;;
27505;SDS011;14939;43.596;1.320;2023-06-14T06:21:43;27.10;;;19.15;;
27505;SDS011;14939;43.596;1.320;2023-06-14T06:24:09;30.35;;;19.35;;
27505;SDS011;14939;43.596;1.320;2023-06-14T06:26:35;29.95;;;20.08;;
27505;SDS011;14939;43.596;1.320;2023-06-14T06:29:01;34.60;;;18.95;;
27505;SDS011;14939;43.596;1.320;2023-06-14T06:31:27;28.13;;;18.83;;
27505;SDS011;14939;43.596;1.320;2023-06-14T06:33:53;29.38;;;18.83;;
27505;SDS011;14939;43.596;1.320;2023-06-14T06:36:19;25.60;;;18.70;;
27505;SDS011;14939;43.596;1.320;2023-06-14T06:38:46;24.45;;;19.15;;
27505;SDS011;14939;43.596;1.320;2023-06-14T06:41:12;30.25;;;18.70;;
27505;SDS011;14939;43.596;1.320;2023-06-14T06:43:38;26.70;;;17.38;;
27505;SDS011;14939;43.596;1.320;2023-06-14T06:46:04;29.83;;;18.48;;
27505;SDS011;14939;43.596;1.320;2023-06-14T06:48:30;26.20;;;17.92;;
27505;SDS011;14939;43.596;1.320;2023-06-14T06:50:56;23.77;;;16.83;;
27505;SDS011;14939;43.596;1.320;2023-06-14T06:53:21;28.38;;;16.92;;
27505;SDS011;14939;43.596;1.320;2023-06-14T06:55:48;27.35;;;17.23;;
27505;SDS011;14939;43.596;1.320;2023-06-14T06:58:13;23.10;;;16.85;;
27505;SDS011;14939;43.596;1.320;2023-06-14T07:00:39;22.15;;;16.38;;
27505;SDS011;14939;43.596;1.320;2023-06-14T07:03:05;28.17;;;16.23;;
27505;SDS011;14939;43.596;1.320;2023-06-14T07:05:30;19.88;;;15.70;;
27505;SDS011;14939;43.596;1.320;2023-06-14T07:07:57;23.70;;;15.75;;
27505;SDS011;14939;43.596;1.320;2023-06-14T07:10:22;23.83;;;15.55;;
27505;SDS011;14939;43.596;1.320;2023-06-14T07:12:49;21.55;;;14.30;;
27505;SDS011;14939;43.596;1.320;2023-06-14T07:15:18;21.48;;;14.15;;
27505;SDS011;14939;43.596;1.320;2023-06-14T07:17:43;23.67;;;14.07;;
27505;SDS011;14939;43.596;1.320;2023-06-14T07:20:09;17.35;;;13.60;;
27505;SDS011;14939;43.596;1.320;2023-06-14T07:22:42;20.95;;;13.85;;
27505;SDS011;14939;43.596;1.320;2023-06-14T07:25:11;21.80;;;13.77;;
27505;SDS011;14939;43.596;1.320;2023-06-14T07:30:07;22.08;;;14.40;;
27505;SDS011;14939;43.596;1.320;2023-06-14T07:32:33;20.45;;;14.52;;
27505;SDS011;14939;43.596;1.320;2023-06-14T07:34:59;25.60;;;14.80;;
27505;SDS011;14939;43.596;1.320;2023-06-14T07:37:25;22.73;;;14.77;;
27505;SDS011;14939;43.596;1.320;2023-06-14T07:39:50;23.55;;;14.80;;
27505;SDS011;14939;43.596;1.320;2023-06-14T07:42:16;23.15;;;15.20;;
27505;SDS011;14939;43.596;1.320;2023-06-14T07:44:42;20.08;;;13.90;;
27505;SDS011;14939;43.596;1.320;2023-06-14T07:47:07;20.05;;;14.93;;
27505;SDS011;14939;43.596;1.320;2023-06-14T07:49:33;19.48;;;14.05;;
27505;SDS011;14939;43.596;1.320;2023-06-14T07:51:59;22.85;;;15.55;;
27505;SDS011;14939;43.596;1.320;2023-06-14T07:54:25;19.73;;;14.25;;
27505;SDS011;14939;43.596;1.320;2023-06-14T07:56:51;23.48;;;14.32;;
27505;SDS011;14939;43.596;1.320;2023-06-14T07:59:17;21.60;;;13.70;;
27505;SDS011;14939;43.596;1.320;2023-06-14T08:01:43;20.42;;;14.43;;
27505;SDS011;14939;43.596;1.320;2023-06-14T08:04:16;23.63;;;14.35;;
27505;SDS011;14939;43.596;1.320;2023-06-14T08:06:41;20.35;;;14.57;;
27505;SDS011;14939;43.596;1.320;2023-06-14T08:09:10;23.60;;;13.85;;
27505;SDS011;14939;43.596;1.320;2023-06-14T08:11:37;24.00;;;14.23;;
27505;SDS011;14939;43.596;1.320;2023-06-14T08:14:03;25.58;;;15.02;;
27505;SDS011;14939;43.596;1.320;2023-06-14T08:16:29;20.45;;;13.20;;
27505;SDS011;14939;43.596;1.320;2023-06-14T08:18:55;19.27;;;13.35;;
27505;SDS011;14939;43.596;1.320;2023-06-14T08:21:21;20.60;;;13.35;;
27505;SDS011;14939;43.596;1.320;2023-06-14T08:23:47;20.90;;;13.60;;
27505;SDS011;14939;43.596;1.320;2023-06-14T08:26:12;19.33;;;13.60;;
27505;SDS011;14939;43.596;1.320;2023-06-14T08:28:38;22.02;;;12.68;;
27505;SDS011;14939;43.596;1.320;2023-06-14T08:31:04;18.48;;;12.57;;
27505;SDS011;14939;43.596;1.320;2023-06-14T08:33:30;19.67;;;13.02;;
27505;SDS011;14939;43.596;1.320;2023-06-14T08:35:58;19.33;;;13.10;;
27505;SDS011;14939;43.596;1.320;2023-06-14T08:38:23;22.23;;;13.55;;
27505;SDS011;14939;43.596;1.320;2023-06-14T08:40:50;23.40;;;13.48;;
27505;SDS011;14939;43.596;1.320;2023-06-14T08:43:16;20.52;;;12.63;;
27505;SDS011;14939;43.596;1.320;2023-06-14T08:45:42;18.58;;;12.57;;
27505;SDS011;14939;43.596;1.320;2023-06-14T08:48:08;18.35;;;12.57;;
27505;SDS011;14939;43.596;1.320;2023-06-14T08:50:34;17.75;;;12.38;;
27505;SDS011;14939;43.596;1.320;2023-06-14T08:53:01;18.02;;;12.48;;
27505;SDS011;14939;43.596;1.320;2023-06-14T08:55:28;26.40;;;13.65;;
27505;SDS011;14939;43.596;1.320;2023-06-14T08:57:55;16.90;;;12.15;;
27505;SDS011;14939;43.596;1.320;2023-06-14T09:00:25;20.80;;;12.65;;
27505;SDS011;14939;43.596;1.320;2023-06-14T09:02:52;21.20;;;13.07;;
27505;SDS011;14939;43.596;1.320;2023-06-14T09:05:25;19.10;;;12.85;;
27505;SDS011;14939;43.596;1.320;2023-06-14T09:07:52;18.00;;;12.30;;
27505;SDS011;14939;43.596;1.320;2023-06-14T09:10:21;20.48;;;12.57;;
27505;SDS011;14939;43.596;1.320;2023-06-14T09:12:48;16.02;;;12.27;;
27505;SDS011;14939;43.596;1.320;2023-06-14T09:15:14;22.55;;;12.48;;
27505;SDS011;14939;43.596;1.320;2023-06-14T09:17:40;20.00;;;12.57;;
27505;SDS011;14939;43.596;1.320;2023-06-14T09:20:06;18.60;;;12.43;;
27505;SDS011;14939;43.596;1.320;2023-06-14T09:22:35;17.92;;;12.23;;
27505;SDS011;14939;43.596;1.320;2023-06-14T09:25:05;17.55;;;12.18;;
27505;SDS011;14939;43.596;1.320;2023-06-14T09:27:31;17.83;;;12.43;;
27505;SDS011;14939;43.596;1.320;2023-06-14T09:29:57;15.70;;;11.82;;
27505;SDS011;14939;43.596;1.320;2023-06-14T09:32:23;21.95;;;12.80;;
27505;SDS011;14939;43.596;1.320;2023-06-14T09:34:50;15.40;;;11.65;;
27505;SDS011;14939;43.596;1.320;2023-06-14T09:39:54;18.85;;;11.80;;
27505;SDS011;14939;43.596;1.320;2023-06-14T09:42:20;22.58;;;11.63;;
27505;SDS011;14939;43.596;1.320;2023-06-14T09:44:49;19.70;;;12.05;;
27505;SDS011;14939;43.596;1.320;2023-06-14T09:47:16;21.50;;;12.15;;
27505;SDS011;14939;43.596;1.320;2023-06-14T09:49:42;18.92;;;11.75;;
27505;SDS011;14939;43.596;1.320;2023-06-14T09:52:14;19.55;;;12.60;;
27505;SDS011;14939;43.596;1.320;2023-06-14T09:54:45;17.73;;;12.05;;
27505;SDS011;14939;43.596;1.320;2023-06-14T09:57:12;17.27;;;11.70;;
27505;SDS011;14939;43.596;1.320;2023-06-14T09:59:45;19.30;;;13.18;;
27505;SDS011;14939;43.596;1.320;2023-06-14T10:02:18;19.95;;;11.57;;
27505;SDS011;14939;43.596;1.320;2023-06-14T10:04:50;16.05;;;11.00;;
27505;SDS011;14939;43.596;1.320;2023-06-14T10:07:19;20.05;;;11.75;;
27505;SDS011;14939;43.596;1.320;2023-06-14T10:09:46;19.00;;;11.13;;
27505;SDS011;14939;43.596;1.320;2023-06-14T10:12:16;13.75;;;10.85;;
27505;SDS011;14939;43.596;1.320;2023-06-14T10:14:46;18.05;;;11.07;;
27505;SDS011;14939;43.596;1.320;2023-06-14T10:17:17;19.05;;;11.02;;
27505;SDS011;14939;43.596;1.320;2023-06-14T10:19:54;16.40;;;10.52;;
27505;SDS011;14939;43.596;1.320;2023-06-14T10:22:35;14.68;;;10.45;;
27505;SDS011;14939;43.596;1.320;2023-06-14T10:25:10;15.98;;;10.75;;
27505;SDS011;14939;43.596;1.320;2023-06-14T10:27:38;16.02;;;10.80;;
27505;SDS011;14939;43.596;1.320;2023-06-14T10:30:04;15.70;;;10.48;;
27505;SDS011;14939;43.596;1.320;2023-06-14T10:32:32;14.63;;;10.40;;
27505;SDS011;14939;43.596;1.320;2023-06-14T10:34:59;14.45;;;10.65;;
27505;SDS011;14939;43.596;1.320;2023-06-14T10:37:34;15.35;;;10.50;;
27505;SDS011;14939;43.596;1.320;2023-06-14T10:40:00;15.00;;;10.00;;
27505;SDS011;14939;43.596;1.320;2023-06-14T10:42:27;13.63;;;9.70;;
27505;SDS011;14939;43.596;1.320;2023-06-14T10:44:57;17.20;;;9.90;;
27505;SDS011;14939;43.596;1.320;2023-06-14T10:49:52;17.17;;;9.75;;
27505;SDS011;14939;43.596;1.320;2023-06-14T10:52:40;12.32;;;9.50;;
27505;SDS011;14939;43.596;1.320;2023-06-14T11:00:21;15.88;;;10.18;;
27505;SDS011;14939;43.596;1.320;2023-06-14T11:05:56;11.50;;;9.85;;
27505;SDS011;14939;43.596;1.320;2023-06-14T11:11:35;14.00;;;9.50;;
27505;SDS011;14939;43.596;1.320;2023-06-14T11:14:03;19.77;;;10.10;;
27505;SDS011;14939;43.596;1.320;2023-06-14T11:16:29;15.75;;;9.57;;
27505;SDS011;14939;43.596;1.320;2023-06-14T11:18:58;15.85;;;9.60;;
27505;SDS011;14939;43.596;1.320;2023-06-14T11:21:26;24.98;;;10.77;;
27505;SDS011;14939;43.596;1.320;2023-06-14T11:23:56;12.27;;;9.75;;
27505;SDS011;14939;43.596;1.320;2023-06-14T11:26:25;14.95;;;9.38;;
27505;SDS011;14939;43.596;1.320;2023-06-14T11:28:55;12.98;;;9.70;;
27505;SDS011;14939;43.596;1.320;2023-06-14T11:31:22;14.75;;;9.60;;
27505;SDS011;14939;43.596;1.320;2023-06-14T11:33:53;11.95;;;9.10;;
27505;SDS011;14939;43.596;1.320;2023-06-14T11:36:20;13.18;;;9.82;;
27505;SDS011;14939;43.596;1.320;2023-06-14T11:38:46;14.57;;;9.32;;
27505;SDS011;14939;43.596;1.320;2023-06-14T11:41:11;14.85;;;9.30;;
27505;SDS011;14939;43.596;1.320;2023-06-14T11:43:37;15.30;;;9.35;;
27505;SDS011;14939;43.596;1.320;2023-06-14T11:46:04;12.45;;;9.35;;
27505;SDS011;14939;43.596;1.320;2023-06-14T11:48:42;13.60;;;9.60;;
27505;SDS011;14939;43.596;1.320;2023-06-14T11:51:08;16.63;;;9.73;;
27505;SDS011;14939;43.596;1.320;2023-06-14T11:53:33;10.82;;;8.80;;
27505;SDS011;14939;43.596;1.320;2023-06-14T11:55:59;11.93;;;9.27;;
27505;SDS011;14939;43.596;1.320;2023-06-14T11:58:26;13.38;;;9.70;;
27505;SDS011;14939;43.596;1.320;2023-06-14T12:00:52;13.25;;;9.32;;
27505;SDS011;14939;43.596;1.320;2023-06-14T12:03:22;14.60;;;9.30;;
27505;SDS011;14939;43.596;1.320;2023-06-14T12:06:05;14.07;;;9.18;;
27505;SDS011;14939;43.596;1.320;2023-06-14T12:08:33;13.15;;;9.35;;
27505;SDS011;14939;43.596;1.320;2023-06-14T12:11:04;12.63;;;8.77;;
27505;SDS011;14939;43.596;1.320;2023-06-14T12:13:30;12.43;;;9.30;;
27505;SDS011;14939;43.596;1.320;2023-06-14T12:15:56;13.65;;;9.05;;
27505;SDS011;14939;43.596;1.320;2023-06-14T12:18:31;14.32;;;9.10;;
27505;SDS011;14939;43.596;1.320;2023-06-14T12:20:59;14.65;;;9.38;;
27505;SDS011;14939;43.596;1.320;2023-06-14T12:23:44;13.05;;;8.73;;
27505;SDS011;14939;43.596;1.320;2023-06-14T12:26:14;15.23;;;9.35;;
27505;SDS011;14939;43.596;1.320;2023-06-14T12:28:42;15.90;;;9.57;;
27505;SDS011;14939;43.596;1.320;2023-06-14T12:31:09;13.02;;;8.80;;
27505;SDS011;14939;43.596;1.320;2023-06-14T12:33:36;13.52;;;9.07;;
27505;SDS011;14939;43.596;1.320;2023-06-14T12:36:06;11.77;;;8.68;;
27505;SDS011;14939;43.596;1.320;2023-06-14T12:38:33;11.90;;;8.80;;
27505;SDS011;14939;43.596;1.320;2023-06-14T12:40:58;13.82;;;8.75;;
27505;SDS011;14939;43.596;1.320;2023-06-14T12:43:25;12.68;;;8.57;;
27505;SDS011;14939;43.596;1.320;2023-06-14T12:45:51;11.75;;;8.65;;
27505;SDS011;14939;43.596;1.320;2023-06-14T12:48:17;12.80;;;8.50;;
27505;SDS011;14939;43.596;1.320;2023-06-14T12:50:42;14.98;;;8.70;;
27505;SDS011;14939;43.596;1.320;2023-06-14T12:53:08;15.48;;;9.05;;
27505;SDS011;14939;43.596;1.320;2023-06-14T12:55:34;14.98;;;9.13;;
27505;SDS011;14939;43.596;1.320;2023-06-14T12:58:00;15.68;;;9.20;;
27505;SDS011;14939;43.596;1.320;2023-06-14T13:00:26;11.43;;;8.88;;
27505;SDS011;14939;43.596;1.320;2023-06-14T13:02:51;13.57;;;9.45;;
27505;SDS011;14939;43.596;1.320;2023-06-14T13:05:18;16.52;;;9.27;;
27505;SDS011;14939;43.596;1.320;2023-06-14T13:07:44;13.50;;;8.38;;
27505;SDS011;14939;43.596;1.320;2023-06-14T13:10:09;13.30;;;8.70;;
27505;SDS011;14939;43.596;1.320;2023-06-14T13:12:35;13.43;;;8.73;;
27505;SDS011;14939;43.596;1.320;2023-06-14T13:15:01;14.18;;;9.00;;
27505;SDS011;14939;43.596;1.320;2023-06-14T13:17:27;14.45;;;9.25;;
27505;SDS011;14939;43.596;1.320;2023-06-14T13:19:53;12.30;;;9.02;;
27505;SDS011;14939;43.596;1.320;2023-06-14T13:22:19;11.27;;;8.48;;
27505;SDS011;14939;43.596;1.320;2023-06-14T13:24:45;11.45;;;8.77;;
27505;SDS011;14939;43.596;1.320;2023-06-14T13:27:10;13.20;;;8.68;;
27505;SDS011;14939;43.596;1.320;2023-06-14T13:29:39;14.40;;;9.13;;
27505;SDS011;14939;43.596;1.320;2023-06-14T13:32:05;12.48;;;8.50;;
27505;SDS011;14939;43.596;1.320;2023-06-14T13:34:31;12.25;;;8.70;;
27505;SDS011;14939;43.596;1.320;2023-06-14T13:36:56;13.77;;;8.40;;
27505;SDS011;14939;43.596;1.320;2023-06-14T13:39:24;11.80;;;8.93;;
27505;SDS011;14939;43.596;1.320;2023-06-14T13:41:50;12.77;;;8.10;;
27505;SDS011;14939;43.596;1.320;2023-06-14T13:44:15;13.45;;;8.65;;
27505;SDS011;14939;43.596;1.320;2023-06-14T13:46:43;12.50;;;8.57;;
27505;SDS011;14939;43.596;1.320;2023-06-14T13:49:10;13.57;;;9.25;;
27505;SDS011;14939;43.596;1.320;2023-06-14T13:51:37;11.57;;;8.73;;
27505;SDS011;14939;43.596;1.320;2023-06-14T13:54:03;14.98;;;8.68;;
27505;SDS011;14939;43.596;1.320;2023-06-14T13:56:29;12.23;;;8.52;;
27505;SDS011;14939;43.596;1.320;2023-06-14T13:58:55;9.82;;;8.25;;
27505;SDS011;14939;43.596;1.320;2023-06-14T14:01:21;11.90;;;8.68;;
27505;SDS011;14939;43.596;1.320;2023-06-14T14:03:48;12.82;;;8.73;;
27505;SDS011;14939;43.596;1.320;2023-06-14T14:06:14;14.50;;;9.18;;
27505;SDS011;14939;43.596;1.320;2023-06-14T14:08:41;15.48;;;9.00;;
27505;SDS011;14939;43.596;1.320;2023-06-14T14:11:07;13.60;;;9.10;;
27505;SDS011;14939;43.596;1.320;2023-06-14T14:13:34;14.60;;;8.35;;
27505;SDS011;14939;43.596;1.320;2023-06-14T14:16:04;12.40;;;8.70;;
27505;SDS011;14939;43.596;1.320;2023-06-14T14:18:30;14.43;;;9.40;;
27505;SDS011;14939;43.596;1.320;2023-06-14T14:20:57;13.15;;;9.23;;
27505;SDS011;14939;43.596;1.320;2023-06-14T14:23:23;13.65;;;10.05;;
27505;SDS011;14939;43.596;1.320;2023-06-14T14:25:49;14.48;;;9.32;;
27505;SDS011;14939;43.596;1.320;2023-06-14T14:28:15;16.08;;;9.57;;
27505;SDS011;14939;43.596;1.320;2023-06-14T14:30:41;13.05;;;9.60;;
27505;SDS011;14939;43.596;1.320;2023-06-14T14:33:07;14.55;;;9.35;;
27505;SDS011;14939;43.596;1.320;2023-06-14T14:35:33;11.23;;;9.00;;
27505;SDS011;14939;43.596;1.320;2023-06-14T14:37:59;13.98;;;9.02;;
27505;SDS011;14939;43.596;1.320;2023-06-14T14:40:25;12.15;;;8.80;;
27505;SDS011;14939;43.596;1.320;2023-06-14T14:42:51;13.23;;;8.88;;
27505;SDS011;14939;43.596;1.320;2023-06-14T14:45:17;15.90;;;8.68;;
27505;SDS011;14939;43.596;1.320;2023-06-14T14:47:42;14.10;;;8.90;;
27505;SDS011;14939;43.596;1.320;2023-06-14T14:50:08;13.93;;;8.40;;